Time;durP1;ratioP1;P1;durP2;ratioP2;P2;SDS_P1;SDS_P2;PMS_P1;PMS_P2;Temp;Humidity;BMP_temperature;BMP_pressure;BME280_temperature;BME280_humidity;BME280_pressure;Samples;Min_cycle;Max_cycle;Signal;HPM_P1;HPM_P2
2022/04/11 00:00:28;;;;;;;;;;;;;;;19.40;64.41;100479.94;5040383;28;1911;-63
2022/04/11 00:02:55;;;;;;;;;;;;;;;19.17;65.43;100474.03;5031949;28;1486;-63
2022/04/11 00:05:22;;;;;;;;;;;;;;;19.35;64.38;100475.00;5032986;28;1512;-63
2022/04/11 00:07:49;;;;;;;;;;;;;;;19.59;64.79;100460.25;5031815;28;1330;-63
2022/04/11 00:10:16;;;;;;;;;;;;;;;19.58;63.44;100464.78;5034812;28;1415;-54
2022/04/11 00:12:42;;;;;;;;;;;;;;;19.36;65.55;100463.28;5032894;28;1307;-54
2022/04/11 00:15:09;;;;;;;;;;;;;;;19.17;65.48;100490.97;5033964;28;1195;-55
2022/04/11 00:17:36;;;;;;;;;;;;;;;19.37;65.50;100491.78;5033667;28;1766;-55
2022/04/11 00:20:04;;;;;;;;;;;;;;;19.62;64.74;100495.69;5031996;28;1979;-63
2022/04/11 00:22:33;;;;;;;;;;;;;;;19.60;64.76;100486.94;5030568;28;1397;-54
2022/04/11 00:25:00;;;;;;;;;;;;;;;19.42;65.40;100494.88;5030352;28;1359;-63
2022/04/11 00:27:26;;;;;;;;;;;;;;;19.13;65.66;100496.78;5034314;28;1074;-63
2022/04/11 00:29:53;;;;;;;;;;;;;;;19.37;64.13;100496.31;5032229;28;1549;-63
2022/04/11 00:32:19;;;;;;;;;;;;;;;19.56;64.80;100503.47;5032047;28;1375;-53
2022/04/11 00:34:46;;;;;;;;;;;;;;;19.53;64.77;100522.53;5032228;28;1379;-53
2022/04/11 00:37:13;;;;;;;;;;;;;;;19.30;65.07;100538.06;5033116;28;1333;-63
2022/04/11 00:39:40;;;;;;;;;;;;;;;19.12;65.86;100537.94;5032850;28;1910;-63
2022/04/11 00:42:08;;;;;;;;;;;;;;;19.46;64.42;100555.28;5029805;28;1186;-63
2022/04/11 00:44:34;;;;;;;;;;;;;;;19.56;64.13;100549.91;5032906;28;1403;-63
2022/04/11 00:47:01;;;;;;;;;;;;;;;19.38;65.53;100552.47;5031582;28;1261;-54
2022/04/11 00:49:28;;;;;;;;;;;;;;;19.17;65.75;100560.66;5030992;28;1347;-54
2022/04/11 00:51:54;;;;;;;;;;;;;;;19.19;64.80;100557.84;5029028;28;1249;-63
2022/04/11 00:54:21;;;;;;;;;;;;;;;19.48;64.05;100564.03;5031708;28;1524;-54
2022/04/11 00:56:50;;;;;;;;;;;;;;;19.56;64.48;100581.25;5032526;28;1171;-63
2022/04/11 00:59:18;;;;;;;;;;;;;;;19.29;65.99;100574.78;5031620;28;1449;-63
2022/04/11 01:01:44;;;;;;;;;;;;;;;19.11;65.44;100579.16;5030954;28;1902;-54
2022/04/11 01:04:23;;;;;;;;;;;;;;;19.38;64.45;100581.13;5034364;28;1331;-54
2022/04/11 01:06:49;;;;;;;;;;;;;;;19.54;64.69;100572.50;5032167;28;1342;-54
2022/04/11 01:09:16;;;;;;;;;;;;;;;19.74;64.50;100579.53;5036007;28;1386;-63
2022/04/11 01:11:43;;;;;;;;;;;;;;;19.88;64.04;100570.19;5033637;28;1279;-63
2022/04/11 01:14:11;;;;;;;;;;;;;;;19.55;64.46;100598.31;5031691;28;1407;-54
2022/04/11 01:16:38;;;;;;;;;;;;;;;19.19;66.08;100584.66;5031397;28;1477;-55
2022/04/11 01:19:05;;;;;;;;;;;;;;;19.17;65.36;100584.78;5033056;28;1273;-63
2022/04/11 01:21:33;;;;;;;;;;;;;;;19.58;65.10;100587.31;5035063;28;1902;-54
2022/04/11 01:23:59;;;;;;;;;;;;;;;19.54;65.14;100608.22;5031700;28;1494;-54
2022/04/11 01:26:26;;;;;;;;;;;;;;;19.35;65.57;100606.38;5031279;28;1425;-63
2022/04/11 01:28:54;;;;;;;;;;;;;;;19.10;65.07;100602.44;5030157;28;1334;-55
2022/04/11 01:31:20;;;;;;;;;;;;;;;19.35;64.42;100616.25;5035759;28;1317;-54
2022/04/11 01:33:47;;;;;;;;;;;;;;;19.57;64.25;100612.44;5031946;28;1583;-53
2022/04/11 01:36:13;;;;;;;;;;;;;;;19.62;64.33;100612.88;5031588;28;1151;-54
2022/04/11 01:38:41;;;;;;;;;;;;;;;19.91;63.04;100625.41;5029669;28;1426;-54
2022/04/11 01:41:07;;;;;;;;;;;;;;;19.99;63.15;100630.88;5033256;28;1997;-63
2022/04/11 01:43:34;;;;;;;;;;;;;;;19.96;62.63;100623.13;5031695;28;1287;-62
2022/04/11 01:46:00;;;;;;;;;;;;;;;19.54;64.19;100626.16;5028864;28;1341;-63
2022/04/11 01:48:27;;;;;;;;;;;;;;;19.19;65.66;100611.47;5032429;28;1450;-64
2022/04/11 01:50:53;;;;;;;;;;;;;;;19.36;65.67;100621.50;5032766;28;1438;-63
2022/04/11 01:53:20;;;;;;;;;;;;;;;19.64;64.73;100624.28;5030461;28;1429;-55
2022/04/11 01:55:48;;;;;;;;;;;;;;;19.60;64.55;100636.31;5030335;28;1481;-54
2022/04/11 01:58:16;;;;;;;;;;;;;;;19.39;64.59;100645.31;5030021;28;1335;-54
2022/04/11 05:38:11;;;;;;;;;;;;;;;20.22;62.47;100841.66;5015808;28;1470;-85
2022/04/11 05:40:45;;;;;;;;;;;;;;;19.99;62.74;100864.41;4995924;28;1902;-87
2022/04/11 05:43:13;;;;;;;;;;;;;;;19.52;62.04;100858.75;4999619;28;1687;-92
2022/04/11 05:45:39;;;;;;;;;;;;;;;19.45;64.77;100874.56;4986150;28;1384;-88
2022/04/11 05:48:06;;;;;;;;;;;;;;;19.66;63.70;100874.50;4995130;28;1558;-93
2022/04/11 05:50:33;;;;;;;;;;;;;;;19.79;63.59;100887.69;4989223;28;1551;-90
2022/04/11 05:53:01;;;;;;;;;;;;;;;20.04;61.95;100880.94;4936366;28;11078;-88
2022/04/11 05:55:29;;;;;;;;;;;;;;;19.91;62.13;100877.66;4985321;28;1531;-87
2022/04/11 05:57:58;;;;;;;;;;;;;;;19.70;63.70;100878.59;5006709;28;1468;-88
2022/04/11 06:00:24;;;;;;;;;;;;;;;19.47;63.51;100905.59;5010109;28;2264;-88
2022/04/11 06:02:51;;;;;;;;;;;;;;;19.53;64.87;100889.97;5002933;28;1559;-89
2022/04/11 06:05:17;;;;;;;;;;;;;;;19.81;64.14;100902.63;5003381;28;1766;-91
2022/04/11 06:07:56;;;;;;;;;;;;;;;20.09;62.57;100905.53;5001675;28;1551;-90
2022/04/11 06:13:27;;;;;;;;;;;;;;;20.00;62.37;100891.09;4996682;28;1412;-88
2022/04/11 06:15:54;;;;;;;;;;;;;;;20.09;61.63;100897.47;4995998;28;1361;-86
2022/04/11 06:18:21;;;;;;;;;;;;;;;20.03;62.25;100887.28;4987340;28;1629;-89
2022/04/11 06:20:49;;;;;;;;;;;;;;;20.01;60.98;100894.63;5002194;28;1948;-88
2022/04/11 06:23:16;;;;;;;;;;;;;;;20.19;61.64;100887.63;4997126;28;1714;-90
2022/04/11 06:25:42;;;;;;;;;;;;;;;20.02;61.34;100893.66;4998580;28;1785;-87
2022/04/11 06:28:09;;;;;;;;;;;;;;;19.96;61.33;100902.28;4997093;28;1563;-89
2022/04/11 06:30:37;;;;;;;;;;;;;;;19.85;61.84;100885.28;4995867;28;1408;-86
2022/04/11 06:33:04;;;;;;;;;;;;;;;20.16;61.86;100908.53;4999445;28;1595;-89
2022/04/11 06:35:31;;;;;;;;;;;;;;;20.12;62.09;100910.63;4996168;28;1759;-89
2022/04/11 06:37:59;;;;;;;;;;;;;;;19.74;62.35;100893.47;5001023;28;1411;-88
2022/04/11 06:40:31;;;;;;;;;;;;;;;19.56;62.90;100909.34;5021132;28;1887;-89
2022/04/11 06:43:06;;;;;;;;;;;;;;;19.24;64.53;100917.53;5019107;28;1007;-92
2022/04/11 06:45:32;;;;;;;;;;;;;;;19.50;63.20;100914.38;5021788;28;983;-89
2022/04/11 06:48:00;;;;;;;;;;;;;;;19.51;63.22;100926.81;5003096;28;1761;-91
2022/04/11 06:50:33;;;;;;;;;;;;;;;19.70;63.11;100900.06;5018894;28;956;-89
2022/04/11 06:53:01;;;;;;;;;;;;;;;19.87;63.31;100914.66;5020931;28;1031;-89
2022/04/11 06:55:28;;;;;;;;;;;;;;;19.82;63.24;100903.50;5020217;28;1765;-90
2022/04/11 06:58:01;;;;;;;;;;;;;;;19.80;63.33;100914.38;5003622;28;1603;-87
2022/04/11 07:00:28;;;;;;;;;;;;;;;19.85;63.19;100906.75;5015651;28;1977;-90
2022/04/11 07:02:55;;;;;;;;;;;;;;;20.12;61.68;100921.38;5019938;28;1863;-89
2022/04/11 07:05:25;;;;;;;;;;;;;;;20.09;61.95;100916.25;5022933;28;1624;-90
2022/04/11 07:07:53;;;;;;;;;;;;;;;19.91;63.38;100917.94;5020714;28;1564;-90
2022/04/11 07:10:25;;;;;;;;;;;;;;;19.58;62.78;100941.41;5016183;28;1523;-86
2022/04/11 07:15:59;;;;;;;;;;;;;;;19.49;64.16;100953.75;5017607;28;1276;-88
2022/04/11 07:18:27;;;;;;;;;;;;;;;19.73;62.76;100948.09;5017219;28;1529;-89
2022/04/11 07:20:55;;;;;;;;;;;;;;;19.98;62.22;100929.81;5019169;28;1906;-89
2022/04/11 07:23:22;;;;;;;;;;;;;;;20.16;62.34;100930.84;5010451;28;1690;-90
2022/04/11 07:25:48;;;;;;;;;;;;;;;20.29;62.55;100935.09;5019736;28;1709;-88
2022/04/11 07:28:16;;;;;;;;;;;;;;;20.06;62.99;100928.13;5016495;28;1823;-89
2022/04/11 07:30:44;;;;;;;;;;;;;;;19.79;64.01;100947.53;5015300;28;1637;-88
2022/04/11 07:33:11;;;;;;;;;;;;;;;19.55;63.48;100952.38;5021025;28;1552;-89
2022/04/11 07:35:40;;;;;;;;;;;;;;;19.89;62.66;100939.53;5014996;28;1559;-88
2022/04/11 07:38:12;;;;;;;;;;;;;;;19.73;63.82;100955.31;5001689;28;1039;-90
2022/04/11 07:40:38;;;;;;;;;;;;;;;19.74;63.18;100955.19;5015636;28;1969;-87
2022/04/11 07:43:08;;;;;;;;;;;;;;;19.55;62.82;100971.16;5020522;28;1090;-88
2022/04/11 07:45:39;;;;;;;;;;;;;;;19.51;64.09;100970.56;5020863;28;1054;-87
2022/04/11 07:48:06;;;;;;;;;;;;;;;19.68;63.85;100966.41;5004239;28;1542;-90
2022/04/11 07:50:34;;;;;;;;;;;;;;;20.12;63.50;100960.81;5000749;28;1023;-89
2022/04/11 07:53:01;;;;;;;;;;;;;;;20.30;63.09;100958.28;5018298;28;1844;-90
2022/04/11 07:55:29;;;;;;;;;;;;;;;20.30;63.69;100960.97;5020807;28;1674;-84
2022/04/11 07:57:56;;;;;;;;;;;;;;;20.03;62.66;100957.97;5017797;28;1756;-86
2022/04/11 08:00:23;;;;;;;;;;;;;;;20.01;62.07;100945.63;5013738;28;1484;-89
2022/04/11 08:02:54;;;;;;;;;;;;;;;19.86;63.48;100980.91;5017622;28;1903;-87
2022/04/11 08:05:21;;;;;;;;;;;;;;;19.89;63.24;100962.84;5018989;28;1781;-85
2022/04/11 08:07:47;;;;;;;;;;;;;;;19.71;63.67;100950.06;5010394;28;1423;-87
2022/04/11 08:10:14;;;;;;;;;;;;;;;19.47;63.87;100975.34;5000413;28;1620;-86
2022/04/11 08:12:56;;;;;;;;;;;;;;;19.32;65.32;100965.09;5006855;28;1698;-86
2022/04/11 08:15:25;;;;;;;;;;;;;;;19.79;64.31;100963.66;5012165;28;1531;-85
2022/04/11 08:17:54;;;;;;;;;;;;;;;19.77;64.41;100967.47;5025207;28;1442;-86
2022/04/11 08:20:22;;;;;;;;;;;;;;;19.62;64.74;100966.97;5018576;28;1296;-88
2022/04/11 08:22:53;;;;;;;;;;;;;;;19.42;64.28;100977.59;5022822;28;1902;-86
2022/04/11 08:25:21;;;;;;;;;;;;;;;19.64;63.71;100986.47;5030935;28;1603;-88
2022/04/11 08:27:50;;;;;;;;;;;;;;;19.67;64.15;100972.75;5023752;28;1329;-85
2022/04/11 08:30:18;;;;;;;;;;;;;;;19.70;63.96;100990.44;5024596;28;1852;-85
2022/04/11 08:32:47;;;;;;;;;;;;;;;20.09;62.77;100961.91;5013103;28;1778;-86
2022/04/11 08:35:15;;;;;;;;;;;;;;;20.13;63.46;100974.06;5007356;28;1653;-84
2022/04/11 08:37:42;;;;;;;;;;;;;;;20.17;62.51;100971.94;5019465;28;1627;-84
2022/04/11 08:40:11;;;;;;;;;;;;;;;20.15;63.22;100981.97;5011484;28;1718;-86
2022/04/11 08:42:50;;;;;;;;;;;;;;;19.98;61.83;100994.25;5018200;28;1891;-88
2022/04/11 08:45:19;;;;;;;;;;;;;;;20.14;61.94;100983.81;5020126;28;1843;-89
2022/04/11 08:47:47;;;;;;;;;;;;;;;20.15;61.86;100995.41;5023155;28;1684;-89
2022/04/11 08:50:15;;;;;;;;;;;;;;;20.18;63.12;100982.56;5018839;28;1624;-92
2022/04/11 08:52:42;;;;;;;;;;;;;;;20.17;61.98;100988.06;5020375;28;1368;-87
2022/04/11 08:55:09;;;;;;;;;;;;;;;19.86;63.92;100990.81;5024542;28;1706;-90
2022/04/11 08:57:36;;;;;;;;;;;;;;;19.62;63.78;100993.78;5022637;28;1705;-89
2022/04/11 09:00:04;;;;;;;;;;;;;;;19.67;65.20;100991.53;5017614;28;1842;-84
2022/04/11 09:02:35;;;;;;;;;;;;;;;20.12;62.37;101004.59;5018470;28;1915;-85
2022/04/11 09:05:10;;;;;;;;;;;;;;;20.26;63.32;100985.41;5007921;28;1624;-87
2022/04/11 09:07:45;;;;;;;;;;;;;;;20.57;62.23;100985.31;5014737;28;1601;-87
2022/04/11 09:10:20;;;;;;;;;;;;;;;20.56;62.53;100991.66;5017411;28;1538;-86
2022/04/11 09:12:48;;;;;;;;;;;;;;;20.63;62.35;100991.97;5015965;28;1571;-87
2022/04/11 09:15:17;;;;;;;;;;;;;;;20.60;62.32;100995.78;5009287;28;1626;-89
2022/04/11 09:17:45;;;;;;;;;;;;;;;20.82;62.31;101009.94;5015009;28;1363;-84
2022/04/11 09:20:13;;;;;;;;;;;;;;;20.40;65.25;101004.81;5017060;28;1478;-86
2022/04/11 09:22:39;;;;;;;;;;;;;;;20.17;65.42;101004.19;5017696;28;2001;-85
2022/04/11 09:25:08;;;;;;;;;;;;;;;19.89;65.69;101005.78;5018458;28;1708;-85
2022/04/11 09:27:34;;;;;;;;;;;;;;;19.65;67.60;101009.59;5015854;28;1445;-84
2022/04/11 09:30:03;;;;;;;;;;;;;;;19.96;64.81;101006.97;5018116;28;1833;-91
2022/04/11 09:32:36;;;;;;;;;;;;;;;19.77;65.51;101019.28;5019734;28;1471;-90
2022/04/11 09:35:07;;;;;;;;;;;;;;;19.57;65.81;101012.94;5020440;28;1531;-90
2022/04/11 09:37:39;;;;;;;;;;;;;;;19.54;65.48;101018.59;5023709;28;1569;-90
2022/04/11 09:40:06;;;;;;;;;;;;;;;19.92;64.79;101006.38;5020831;28;1491;-89
2022/04/11 09:42:33;;;;;;;;;;;;;;;19.83;65.02;101002.66;5023937;28;1906;-92
2022/04/11 09:45:02;;;;;;;;;;;;;;;19.62;65.76;100988.44;5024236;28;1485;-91
2022/04/11 09:47:29;;;;;;;;;;;;;;;19.71;64.79;101000.16;5017028;28;1535;-91
2022/04/11 09:49:55;;;;;;;;;;;;;;;19.99;63.53;101009.34;5021288;28;1566;-90
2022/04/11 09:52:29;;;;;;;;;;;;;;;19.84;64.29;101015.09;5019865;28;1506;-89
2022/04/11 09:54:58;;;;;;;;;;;;;;;19.67;66.60;101013.84;5017798;28;1320;-93
2022/04/11 09:57:35;;;;;;;;;;;;;;;19.79;66.04;101005.75;5018574;28;1646;-89
2022/04/11 10:00:04;;;;;;;;;;;;;;;20.26;65.62;101027.53;5018210;28;1737;-90
2022/04/11 10:02:31;;;;;;;;;;;;;;;20.21;67.39;100994.84;5018829;28;1977;-91
2022/04/11 10:04:58;;;;;;;;;;;;;;;20.03;66.73;101006.28;5019019;28;1546;-89
2022/04/11 10:07:26;;;;;;;;;;;;;;;19.91;69.15;101003.81;5014385;28;1339;-88
2022/04/11 10:12:41;;;;;;;;;;;;;;;20.71;65.79;100981.41;5014477;28;1582;-91
2022/04/11 10:15:14;;;;;;;;;;;;;;;20.75;67.18;100990.88;5013929;28;1412;-89
2022/04/11 10:17:43;;;;;;;;;;;;;;;20.53;68.20;100997.34;5020490;28;1582;-89
2022/04/11 10:20:09;;;;;;;;;;;;;;;20.13;67.89;101000.06;5018419;28;1603;-87
2022/04/11 10:22:51;;;;;;;;;;;;;;;19.73;65.58;100999.06;5013619;28;1997;-89
2022/04/11 10:31:35;;;;;;;;;;;;;;;19.67;66.30;101011.16;5048926;23;1869;-38
2022/04/11 10:34:18;;;;;;;;;;;;;;;19.52;67.90;100976.78;5008812;28;1434;-37
2022/04/11 10:36:56;;;;;;;;;;;;;;;19.67;68.13;100992.38;5016646;28;1450;-37
2022/04/11 10:39:37;;;;;;;;;;;;;;;19.92;66.95;100992.09;5025084;28;1566;-37
2022/04/11 10:42:07;;;;;;;;;;;;;;;19.68;66.98;100964.59;5014879;28;2021;-38
2022/04/11 10:44:45;;;;;;;;;;;;;;;19.58;67.24;100977.09;5019222;28;1442;-37
2022/04/11 10:47:34;;;;;;;;;;;;;;;19.50;67.12;100954.59;5013387;28;1870;-37
2022/04/11 10:50:21;;;;;;;;;;;;;;;19.93;65.72;100967.78;5021318;28;1421;-38
2022/04/11 10:52:51;;;;;;;;;;;;;;;20.41;65.60;100950.94;5018281;28;1462;-38
2022/04/11 10:55:28;;;;;;;;;;;;;;;20.35;65.15;100948.81;5011384;28;1469;-38
2022/04/11 10:57:56;;;;;;;;;;;;;;;19.96;66.53;100977.44;5008366;28;1568;-39
2022/04/11 11:00:23;;;;;;;;;;;;;;;19.84;67.01;100985.56;5015003;28;1655;-38
2022/04/11 11:03:13;;;;;;;;;;;;;;;19.73;69.58;100982.97;5013500;28;1983;-38
2022/04/11 11:05:41;;;;;;;;;;;;;;;20.19;67.16;100949.38;5010817;28;1770;-38
2022/04/11 11:08:38;;;;;;;;;;;;;;;20.23;66.18;100956.16;5007614;28;1853;-37
2022/04/11 11:11:07;;;;;;;;;;;;;;;20.16;67.55;100949.63;5006895;28;1667;-39
2022/04/11 11:13:44;;;;;;;;;;;;;;;20.01;66.99;100967.13;5006211;28;1449;-38
2022/04/11 11:16:43;;;;;;;;;;;;;;;19.79;68.89;100985.13;5001758;28;1682;-38
2022/04/11 11:19:13;;;;;;;;;;;;;;;19.61;67.92;100963.41;4963817;28;1775;-39
2022/04/11 11:21:58;;;;;;;;;;;;;;;19.57;69.11;100961.13;4999837;28;1995;-38
2022/04/11 11:24:26;;;;;;;;;;;;;;;19.42;70.37;100955.28;5006837;28;1631;-38
2022/04/11 11:26:53;;;;;;;;;;;;;;;19.34;70.50;100958.66;5012238;28;2551;-39
2022/04/11 11:29:22;;;;;;;;;;;;;;;19.36;70.13;100956.69;5008190;28;1544;-39
2022/04/11 11:34:44;;;;;;;;;;;;;;;19.27;68.83;100965.50;5008343;28;2455;-37
2022/04/11 11:37:15;;;;;;;;;;;;;;;19.27;69.99;100962.81;4999607;28;1840;-38
2022/04/11 11:39:45;;;;;;;;;;;;;;;19.30;69.51;100973.28;5004236;28;1526;-40
2022/04/11 11:42:14;;;;;;;;;;;;;;;19.24;69.83;100974.66;5005896;28;1910;-39
2022/04/11 11:44:55;;;;;;;;;;;;;;;19.30;68.98;100984.03;5012456;28;1597;-38
2022/04/11 11:47:24;;;;;;;;;;;;;;;19.24;70.39;101006.00;5004713;28;1637;-37
2022/04/11 11:49:53;;;;;;;;;;;;;;;19.33;69.57;100989.09;5007677;28;1937;-38
2022/04/11 11:52:23;;;;;;;;;;;;;;;19.35;70.07;100971.06;5010641;28;1799;-38
2022/04/11 11:55:02;;;;;;;;;;;;;;;19.22;70.33;100957.03;5008500;28;1487;-38
2022/04/11 11:57:32;;;;;;;;;;;;;;;19.18;70.04;100972.53;5008710;28;1512;-38
2022/04/11 12:00:03;;;;;;;;;;;;;;;19.15;69.54;100971.94;5009098;28;1669;-38
2022/04/11 12:05:18;;;;;;;;;;;;;;;19.16;70.64;100968.25;5017389;28;1478;-37
2022/04/11 12:07:47;;;;;;;;;;;;;;;19.21;69.60;100974.91;5007338;28;1493;-37
2022/04/11 12:10:15;;;;;;;;;;;;;;;19.21;70.11;100966.03;5009967;28;1758;-38
2022/04/11 12:12:44;;;;;;;;;;;;;;;19.01;69.91;100971.25;4995674;28;1948;-38
2022/04/11 12:15:13;;;;;;;;;;;;;;;18.94;69.72;100975.47;5009415;28;1566;-38
2022/04/11 12:17:41;;;;;;;;;;;;;;;19.09;69.39;100992.06;5009535;28;1622;-37
2022/04/11 12:20:10;;;;;;;;;;;;;;;19.01;70.29;100973.94;5009796;28;1458;-37
2022/04/11 12:22:37;;;;;;;;;;;;;;;19.03;69.29;100961.25;5012294;28;1991;-37
2022/04/11 12:25:25;;;;;;;;;;;;;;;18.96;69.80;100959.22;5012804;28;1730;-37
2022/04/11 12:27:51;;;;;;;;;;;;;;;18.73;69.82;100958.47;5013360;28;1846;-37
2022/04/11 12:30:21;;;;;;;;;;;;;;;18.72;68.96;100941.56;5013590;28;1421;-37
2022/04/11 12:32:49;;;;;;;;;;;;;;;18.83;67.72;100954.06;5009700;28;1455;-37
2022/04/11 12:35:23;;;;;;;;;;;;;;;18.71;65.52;100947.88;5011947;28;1608;-37
2022/04/11 12:37:54;;;;;;;;;;;;;;;18.60;69.08;100948.81;5012746;28;1521;-37
2022/04/11 12:40:23;;;;;;;;;;;;;;;18.56;67.97;100954.53;5011962;28;1536;-38
2022/04/11 12:43:00;;;;;;;;;;;;;;;18.57;69.69;100965.13;5012040;28;1980;-37
2022/04/11 12:45:34;;;;;;;;;;;;;;;18.53;70.54;100976.22;5009462;28;1390;-37
2022/04/11 12:48:05;;;;;;;;;;;;;;;18.48;70.43;100980.13;5011692;28;1672;-37
2022/04/11 12:50:32;;;;;;;;;;;;;;;18.48;70.64;100976.59;5007616;28;2000;-38
2022/04/11 12:52:58;;;;;;;;;;;;;;;18.45;70.30;100966.97;5014003;28;1310;-37
2022/04/11 12:55:34;;;;;;;;;;;;;;;18.45;70.44;100987.56;5009638;28;1593;-37
2022/04/11 12:58:06;;;;;;;;;;;;;;;18.43;70.60;100997.56;5003700;28;1701;-37
2022/04/11 13:00:37;;;;;;;;;;;;;;;18.39;70.52;100998.78;5013739;28;1618;-37
2022/04/11 13:03:05;;;;;;;;;;;;;;;18.40;69.90;100992.44;5008918;28;1906;-37
2022/04/11 13:05:35;;;;;;;;;;;;;;;18.35;69.49;100998.19;5011155;28;1818;-37
2022/04/11 13:08:16;;;;;;;;;;;;;;;18.38;70.48;101005.09;5012176;28;1581;-37
2022/04/11 13:10:45;;;;;;;;;;;;;;;18.37;69.79;101006.94;5011795;28;1546;-37
2022/04/11 13:13:14;;;;;;;;;;;;;;;18.32;70.06;100994.91;5012210;28;1540;-37
2022/04/11 13:18:34;;;;;;;;;;;;;;;18.35;69.34;100997.34;5003676;28;1526;-37
2022/04/11 13:21:01;;;;;;;;;;;;;;;18.29;69.99;100986.13;5010388;28;1615;-38
2022/04/11 13:23:30;;;;;;;;;;;;;;;18.32;69.26;100989.53;5010847;28;1902;-37
2022/04/11 13:25:58;;;;;;;;;;;;;;;18.29;69.11;100978.09;5012771;28;1692;-38
2022/04/11 13:28:25;;;;;;;;;;;;;;;18.28;69.51;100975.56;5011970;28;1688;-37
2022/04/11 13:31:08;;;;;;;;;;;;;;;18.24;69.25;100966.94;5011805;28;1534;-37
2022/04/11 13:33:34;;;;;;;;;;;;;;;18.22;69.67;100971.56;5011743;28;1430;-37
2022/04/11 13:36:01;;;;;;;;;;;;;;;18.23;69.92;100975.09;5008858;28;1495;-37
2022/04/11 13:38:30;;;;;;;;;;;;;;;18.21;69.84;100969.84;5010534;28;1686;-37
2022/04/11 13:40:58;;;;;;;;;;;;;;;18.24;69.01;100972.28;5011666;28;1590;-37
2022/04/11 13:43:28;;;;;;;;;;;;;;;18.22;69.27;100968.91;5008175;28;1973;-38
2022/04/11 13:45:58;;;;;;;;;;;;;;;18.20;69.74;100961.94;5006888;28;1385;-37
2022/04/11 13:48:26;;;;;;;;;;;;;;;18.22;69.21;100960.88;5010940;28;1534;-37
2022/04/11 13:50:55;;;;;;;;;;;;;;;18.21;69.64;100958.31;5008445;28;2238;-37
2022/04/11 13:53:24;;;;;;;;;;;;;;;18.20;68.59;100957.44;5013273;28;1418;-37
2022/04/11 13:55:54;;;;;;;;;;;;;;;18.24;69.53;100968.75;5011898;28;1536;-37
2022/04/11 13:58:22;;;;;;;;;;;;;;;18.21;69.07;100956.47;5009849;28;1468;-37
2022/04/11 14:00:49;;;;;;;;;;;;;;;18.21;69.25;100959.16;5011320;28;1676;-38
2022/04/11 14:03:19;;;;;;;;;;;;;;;18.23;68.59;100962.56;5009861;28;1938;-37
2022/04/11 14:05:46;;;;;;;;;;;;;;;18.24;68.84;100952.69;5011939;28;1580;-37
2022/04/11 14:08:24;;;;;;;;;;;;;;;18.21;68.48;100960.97;5013746;28;1842;-37
2022/04/11 14:10:54;;;;;;;;;;;;;;;18.22;69.50;100965.34;5012414;28;1840;-37
2022/04/11 14:13:28;;;;;;;;;;;;;;;18.16;69.04;100945.28;5011531;28;1530;-37
2022/04/11 14:15:56;;;;;;;;;;;;;;;18.14;69.24;100954.41;5010963;28;1501;-37
2022/04/11 14:18:26;;;;;;;;;;;;;;;18.18;68.53;100948.69;5006909;28;1494;-37
2022/04/11 14:20:55;;;;;;;;;;;;;;;18.20;68.45;100969.97;5011834;28;1353;-37
2022/04/11 14:23:27;;;;;;;;;;;;;;;18.16;68.58;100949.78;5014143;28;1906;-37
2022/04/11 14:25:53;;;;;;;;;;;;;;;18.17;68.77;100954.19;5013072;28;1566;-37
2022/04/11 14:28:23;;;;;;;;;;;;;;;18.17;68.32;100952.34;5015527;28;1497;-38
2022/04/11 14:30:50;;;;;;;;;;;;;;;18.15;68.97;100948.94;5009391;28;1679;-38
2022/04/11 14:33:20;;;;;;;;;;;;;;;18.13;68.36;100950.91;4993802;28;1361;-37
2022/04/11 14:35:49;;;;;;;;;;;;;;;18.15;68.06;100956.13;4992861;28;1749;-37
2022/04/11 14:38:16;;;;;;;;;;;;;;;18.08;68.81;100943.25;4988403;28;1443;-38
2022/04/11 14:40:44;;;;;;;;;;;;;;;18.10;68.47;100953.81;4994711;28;1453;-38
2022/04/11 14:43:11;;;;;;;;;;;;;;;18.12;68.55;100954.53;4996316;28;1906;-38
2022/04/11 14:45:43;;;;;;;;;;;;;;;18.10;68.75;100961.84;4994438;28;1360;-37
2022/04/11 14:48:10;;;;;;;;;;;;;;;18.08;69.26;100963.78;4996953;28;1974;-37
2022/04/11 14:50:47;;;;;;;;;;;;;;;18.10;69.10;100951.13;4983278;28;1890;-37
2022/04/11 14:53:22;;;;;;;;;;;;;;;18.07;69.15;100959.44;4993742;28;1431;-37
2022/04/11 14:55:50;;;;;;;;;;;;;;;18.09;69.12;100947.63;4992590;28;1563;-37
2022/04/11 14:58:20;;;;;;;;;;;;;;;18.05;68.99;100954.19;4994563;28;1471;-37
2022/04/11 15:00:55;;;;;;;;;;;;;;;18.07;68.95;100968.31;4996179;28;1711;-38
2022/04/11 15:03:21;;;;;;;;;;;;;;;18.03;69.15;100960.66;4995579;28;1977;-38
2022/04/11 15:05:49;;;;;;;;;;;;;;;18.03;68.23;100963.34;4993231;28;1397;-37
2022/04/11 15:08:19;;;;;;;;;;;;;;;18.03;68.78;100968.69;4992157;28;1551;-37
2022/04/11 15:10:49;;;;;;;;;;;;;;;18.02;68.46;100966.97;4995185;28;1382;-37
2022/04/11 15:13:17;;;;;;;;;;;;;;;18.00;69.01;100966.25;4992946;28;1552;-38
2022/04/11 15:15:49;;;;;;;;;;;;;;;17.97;68.74;100958.47;4994240;28;1543;-37
2022/04/11 15:18:17;;;;;;;;;;;;;;;18.00;68.81;100960.88;4993069;28;1505;-38
2022/04/11 15:20:44;;;;;;;;;;;;;;;17.98;68.99;100965.53;4994963;28;1644;-37
2022/04/11 15:23:13;;;;;;;;;;;;;;;18.01;68.68;100973.31;4990958;28;1985;-37
2022/04/11 15:25:45;;;;;;;;;;;;;;;17.97;68.57;100972.69;4986884;28;1697;-37
2022/04/11 15:28:12;;;;;;;;;;;;;;;17.97;69.07;100966.50;4993181;28;1559;-37
2022/04/11 15:30:41;;;;;;;;;;;;;;;17.95;68.30;100974.66;4999822;28;1543;-37
2022/04/11 15:33:11;;;;;;;;;;;;;;;17.97;69.06;100975.38;5011873;28;1331;-37
2022/04/11 15:35:40;;;;;;;;;;;;;;;17.95;69.08;100974.66;5011269;28;1645;-37
2022/04/11 15:38:08;;;;;;;;;;;;;;;17.96;68.60;100986.19;5013960;28;1948;-37
2022/04/11 15:40:35;;;;;;;;;;;;;;;17.95;68.74;100981.84;5013403;28;1439;-38
2022/04/11 15:43:05;;;;;;;;;;;;;;;17.94;68.45;100985.47;5012212;28;1913;-37
2022/04/11 15:45:34;;;;;;;;;;;;;;;17.93;68.36;100992.66;5012271;28;1395;-37
2022/04/11 15:48:01;;;;;;;;;;;;;;;17.94;68.63;100998.84;5012616;28;1962;-37
2022/04/11 15:50:31;;;;;;;;;;;;;;;17.92;68.67;100995.44;5012104;28;1610;-37
2022/04/11 15:52:57;;;;;;;;;;;;;;;17.91;69.09;101005.31;5013659;28;1957;-37
2022/04/11 15:55:26;;;;;;;;;;;;;;;17.89;68.83;100996.56;5013468;28;1564;-37
2022/04/11 15:57:52;;;;;;;;;;;;;;;17.88;68.21;101001.03;5012191;28;1513;-37
2022/04/11 16:00:24;;;;;;;;;;;;;;;17.89;68.15;100997.41;5010274;28;1615;-37
2022/04/11 16:02:51;;;;;;;;;;;;;;;17.87;68.72;101002.03;5009271;28;2057;-37
2022/04/11 16:05:21;;;;;;;;;;;;;;;17.85;68.51;101014.66;5013471;28;1985;-37
2022/04/11 16:07:48;;;;;;;;;;;;;;;17.87;68.87;100988.63;5012482;28;1383;-37
2022/04/11 16:10:15;;;;;;;;;;;;;;;17.87;69.06;100982.44;5011976;28;1456;-37
2022/04/11 16:12:47;;;;;;;;;;;;;;;17.85;68.15;100979.88;5011623;28;1423;-38
2022/04/11 16:15:26;;;;;;;;;;;;;;;17.85;68.79;100979.88;5011611;28;1302;-37
2022/04/11 16:18:02;;;;;;;;;;;;;;;17.88;68.68;100990.31;5014453;28;1398;-37
2022/04/11 16:20:32;;;;;;;;;;;;;;;17.83;68.49;100984.50;5009625;28;1414;-38
2022/04/11 16:23:01;;;;;;;;;;;;;;;17.84;68.09;100994.22;5012528;28;1487;-37
2022/04/11 16:25:37;;;;;;;;;;;;;;;17.82;68.60;100985.44;5012975;28;1946;-37
2022/04/11 16:28:04;;;;;;;;;;;;;;;17.83;68.10;100984.50;5010978;28;1682;-37
2022/04/11 16:30:33;;;;;;;;;;;;;;;17.83;68.54;100987.19;5013523;28;1455;-37
2022/04/11 16:33:04;;;;;;;;;;;;;;;17.82;68.12;100996.13;5010450;28;1642;-37
2022/04/11 16:35:40;;;;;;;;;;;;;;;17.80;68.82;100976.69;5012578;28;1895;-38
2022/04/11 16:38:08;;;;;;;;;;;;;;;17.81;68.54;100994.44;5012180;28;1662;-37
2022/04/11 16:40:38;;;;;;;;;;;;;;;17.82;68.03;100993.47;5012716;28;1629;-38
2022/04/11 16:43:05;;;;;;;;;;;;;;;17.80;68.80;100991.88;5012962;28;1286;-37
2022/04/11 16:45:32;;;;;;;;;;;;;;;17.82;68.35;100995.28;5011863;28;1996;-38
2022/04/11 16:47:59;;;;;;;;;;;;;;;17.79;68.48;101000.91;5009254;28;1558;-38
2022/04/11 16:50:29;;;;;;;;;;;;;;;17.78;68.60;101000.03;5010901;28;1865;-37
2022/04/11 16:52:58;;;;;;;;;;;;;;;17.79;68.14;101001.75;5012209;28;1442;-37
2022/04/11 16:55:26;;;;;;;;;;;;;;;17.77;68.56;101003.69;5008082;28;1340;-37
2022/04/11 16:57:52;;;;;;;;;;;;;;;17.75;67.79;101002.13;5009905;28;1563;-37
2022/04/11 17:00:33;;;;;;;;;;;;;;;17.75;68.48;101011.00;5014704;28;1376;-38